Monomotapa — IQ4855 — position and weather

sailwx.info

Track history (hours):
 
Tides and Currents Weather Stations Pressure Air Temp Water Temp Dewpoint Dewpoint Depression Visibility Wind Speed Wind Dir Waves Ship Positions

Monomotapa

Last reported at 2018-Jun-24 08:26 UTC. Time now 2018-Jul-20 22:09 UTC.
Position N 38°10' E 000°10'.
Warning: this ship's position is 26 days out of date.

Length 15 m.

Type: Sailing vessel. MMSI: 247206490.

Date/timePositionNaut miles runAvg speedWind from/ knotsBaromVisibWave heightAir tempDewpointWater temp
2018-Jun-24 08:26N 38°10' E 000°10'28 2.8
2018-Jun-23 22:31N 37°42' E 000°04'0 1.3
2018-Jun-23 22:25N 37°42' E 000°04'1 1.2
2018-Jun-23 21:55N 37°41' E 000°04'1 1.2
2018-Jun-23 21:25N 37°41' E 000°03'1 1.4
2018-Jun-23 20:58N 37°40' E 000°03'1 1.4
2018-Jun-23 20:14N 37°39' E 000°03'0 1.4
2018-Jun-23 19:58N 37°39' E 000°03'1 1.5
2018-Jun-23 19:19N 37°38' E 000°02'0 1.5
2018-Jun-23 18:59N 37°38' E 000°02'1 1.5
2018-Jun-23 18:29N 37°37' E 000°02'1 1.5
2018-Jun-23 17:55N 37°36' E 000°02'1 1.4
2018-Jun-23 17:24N 37°35' E 000°01'1 1.2
2018-Jun-23 16:56N 37°35' E 000°01'1 1.4
2018-Jun-23 16:23N 37°34' E 000°01'1 1.4
2018-Jun-23 15:58N 37°34' E 000°01'1 1.4
2018-Jun-23 15:25N 37°33' E 000°00'1 1.4
2018-Jun-23 14:59N 37°32' E 000°00'1 1.5
2018-Jun-23 14:25N 37°32' W 000°00'1 1.6
2018-Jun-23 13:54N 37°31' W 000°01'1 1.6
2018-Jun-23 13:23N 37°30' W 000°01'1 1.6
2018-Jun-23 12:59N 37°29' W 000°01'1 1.6
2018-Jun-23 12:20N 37°28' W 000°02'1 1.6
2018-Jun-23 11:59N 37°28' W 000°02'1 1.5
2018-Jun-23 11:30N 37°27' W 000°02'1 1.6
2018-Jun-23 10:57N 37°26' W 000°03'1 1.5
2018-Jun-23 10:15N 37°25' W 000°03'1 1.5
2018-Jun-23 09:50N 37°25' W 000°04'0 1.4
2018-Jun-23 09:28N 37°24' W 000°04'2 1.3
2018-Jun-23 07:51N 37°22' W 000°05'2 0.9
2018-Jun-23 05:11N 37°23' W 000°08'5317.2
2018-Jun-23 02:06N 38°13' E 000°11'1 5.3
2018-Jun-23 01:52N 38°12' E 000°11'2 5.3
2018-Jun-23 01:29N 38°10' E 000°10'28 5.7
2018-Jun-22 20:32N 37°42' E 000°04'0 3.8
2018-Jun-22 20:30N 37°42' E 000°04'2 3.8
2018-Jun-22 20:00N 37°40' E 000°03'2 4.5
2018-Jun-22 19:30N 37°38' E 000°02'2 5.0
2018-Jun-22 19:00N 37°36' E 000°01'2 4.7
2018-Jun-22 18:30N 37°33' E 000°01'3 5.5
2018-Jun-22 18:00N 37°31' W 000°01'3 6.4
2018-Jun-22 17:30N 37°28' W 000°02'4 6.4
2018-Jun-22 16:57N 37°25' W 000°04'3 5.5
2018-Jun-22 16:28N 37°22' W 000°05'2 4.4
2018-Jun-22 15:57N 37°23' W 000°08'2 4.4
2018-Jun-22 15:27N 37°23' W 000°11'2 4.6
2018-Jun-22 14:59N 37°24' W 000°13'2 4.4
2018-Jun-22 14:29N 37°25' W 000°15'6 4.1
2018-Jun-22 13:05N 37°28' W 000°22'1 5.5
2018-Jun-22 12:59N 37°28' W 000°22'3 5.0
2018-Jun-22 12:28N 37°30' W 000°25'4 5.6
2018-Jun-22 11:50N 37°32' W 000°29'2 5.0
2018-Jun-22 11:30N 37°32' W 000°31'2 4.6
2018-Jun-22 10:58N 37°33' W 000°33'2 4.5
2018-Jun-22 10:30N 37°34' W 000°36'7 4.6
2018-Jun-22 09:05N 37°35' W 000°44'1 5.4
2018-Jun-22 08:56N 37°34' W 000°45'  
Track history (hours):
 
Tides and Currents Weather Stations Pressure Air Temp Water Temp Dewpoint Dewpoint Depression Visibility Wind Speed Wind Dir Waves Ship Positions

Monomotapa

Last reported at 2018-Jun-24 08:26 UTC. Time now 2018-Jul-20 22:09 UTC.
Position N 38°10' E 000°10'.
Warning: this ship's position is 26 days out of date.

Length 15 m.

Type: Sailing vessel. MMSI: 247206490.

Date/timePositionNaut miles runAvg speedWind from/ knotsBaromVisibWave heightAir tempDewpointWater temp
2018-Jun-24 08:26N 38°10' E 000°10'28 2.8
2018-Jun-23 22:31N 37°42' E 000°04'0 1.3
2018-Jun-23 22:25N 37°42' E 000°04'1 1.2
2018-Jun-23 21:55N 37°41' E 000°04'1 1.2
2018-Jun-23 21:25N 37°41' E 000°03'1 1.4
2018-Jun-23 20:58N 37°40' E 000°03'1 1.4
2018-Jun-23 20:14N 37°39' E 000°03'0 1.4
2018-Jun-23 19:58N 37°39' E 000°03'1 1.5
2018-Jun-23 19:19N 37°38' E 000°02'0 1.5
2018-Jun-23 18:59N 37°38' E 000°02'1 1.5
2018-Jun-23 18:29N 37°37' E 000°02'1 1.5
2018-Jun-23 17:55N 37°36' E 000°02'1 1.4
2018-Jun-23 17:24N 37°35' E 000°01'1 1.2
2018-Jun-23 16:56N 37°35' E 000°01'1 1.4
2018-Jun-23 16:23N 37°34' E 000°01'1 1.4
2018-Jun-23 15:58N 37°34' E 000°01'1 1.4
2018-Jun-23 15:25N 37°33' E 000°00'1 1.4
2018-Jun-23 14:59N 37°32' E 000°00'1 1.5
2018-Jun-23 14:25N 37°32' W 000°00'1 1.6
2018-Jun-23 13:54N 37°31' W 000°01'1 1.6
2018-Jun-23 13:23N 37°30' W 000°01'1 1.6
2018-Jun-23 12:59N 37°29' W 000°01'1 1.6
2018-Jun-23 12:20N 37°28' W 000°02'1 1.6
2018-Jun-23 11:59N 37°28' W 000°02'1 1.5
2018-Jun-23 11:30N 37°27' W 000°02'1 1.6
2018-Jun-23 10:57N 37°26' W 000°03'1 1.5
2018-Jun-23 10:15N 37°25' W 000°03'1 1.5
2018-Jun-23 09:50N 37°25' W 000°04'0 1.4
2018-Jun-23 09:28N 37°24' W 000°04'2 1.3
2018-Jun-23 07:51N 37°22' W 000°05'2 0.9
2018-Jun-23 05:11N 37°23' W 000°08'5317.2
2018-Jun-23 02:06N 38°13' E 000°11'1 5.3
2018-Jun-23 01:52N 38°12' E 000°11'2 5.3
2018-Jun-23 01:29N 38°10' E 000°10'28 5.7
2018-Jun-22 20:32N 37°42' E 000°04'0 3.8
2018-Jun-22 20:30N 37°42' E 000°04'2 3.8
2018-Jun-22 20:00N 37°40' E 000°03'2 4.5
2018-Jun-22 19:30N 37°38' E 000°02'2 5.0
2018-Jun-22 19:00N 37°36' E 000°01'2 4.7
2018-Jun-22 18:30N 37°33' E 000°01'3 5.5
2018-Jun-22 18:00N 37°31' W 000°01'3 6.4
2018-Jun-22 17:30N 37°28' W 000°02'4 6.4
2018-Jun-22 16:57N 37°25' W 000°04'3 5.5
2018-Jun-22 16:28N 37°22' W 000°05'2 4.4
2018-Jun-22 15:57N 37°23' W 000°08'2 4.4
2018-Jun-22 15:27N 37°23' W 000°11'2 4.6
2018-Jun-22 14:59N 37°24' W 000°13'2 4.4
2018-Jun-22 14:29N 37°25' W 000°15'6 4.1
2018-Jun-22 13:05N 37°28' W 000°22'1 5.5
2018-Jun-22 12:59N 37°28' W 000°22'3 5.0
2018-Jun-22 12:28N 37°30' W 000°25'4 5.6
2018-Jun-22 11:50N 37°32' W 000°29'2 5.0
2018-Jun-22 11:30N 37°32' W 000°31'2 4.6
2018-Jun-22 10:58N 37°33' W 000°33'2 4.5
2018-Jun-22 10:30N 37°34' W 000°36'7 4.6
2018-Jun-22 09:05N 37°35' W 000°44'1 5.4
2018-Jun-22 08:56N 37°34' W 000°45'  

Dump ship's entire track history